Cory, Colorado
Current Conditions -  °F | °C
As of 3:35 PM on Wednesday 22 Oct 2014 (Local Time) from KAJZ Reporting Station
Clear Clear  
Wind Chill: 71°   Ceiling: Unl
Heat Index: 71°   Visibility: 10mi
Dew Point: 36°   Wind: 7mph
Humidity: 27%   Direction: 250°WSW
Pressure: 30.12"   Gusts: NA
Location:  38.79°N, 107.99°W
Report Text: KAJZ 222135Z AUTO 25006KT 10SM CLR 22/02 A3012 RMK AO2 T02180020
Loading
Personal Weather Stations






























Interactive Weather Map
Tropical Storm Tracking
New forecast layout! Learn more

10-Day Weather Forecast

Advertisements
Track Severe Weather on mobile